Time;durP1;ratioP1;P1;durP2;ratioP2;P2;SDS_P1;SDS_P2;PMS_P1;PMS_P2;Temp;Humidity;BMP_temperature;BMP_pressure;BME280_temperature;BME280_humidity;BME280_pressure;Samples;Min_cycle;Max_cycle;Signal;HPM_P1;HPM_P2
2022/11/12 00:02:18;;;;;;;20.58;10.70;;;;;;;;;;10388914;22;20051;-93
2022/11/12 00:06:21;;;;;;;24.80;10.27;;;;;;;;;;10388718;22;20027;-93
2022/11/12 00:10:24;;;;;;;23.42;11.00;;;;;;;;;;10389071;22;20528;-92
2022/11/12 00:14:28;;;;;;;23.40;10.93;;;;;;;;;;10388602;22;20095;-93
2022/11/12 00:18:30;;;;;;;21.70;10.10;;;;;;;;;;10388331;22;20436;-92
2022/11/12 00:22:34;;;;;;;23.00;10.02;;;;;;;;;;10388250;22;20090;-94
2022/11/12 00:26:36;;;;;;;19.20;9.57;;;;;;;;;;10388441;22;20073;-93
2022/11/12 00:30:41;;;;;;;18.13;10.38;;;;;;;;;;10388821;22;20344;-92
2022/11/12 00:34:43;;;;;;;21.15;10.80;;;;;;;;;;10389565;22;20435;-93
2022/11/12 00:38:46;;;;;;;19.70;9.13;;;;;;;;;;10388394;22;20027;-93
2022/11/12 00:42:50;;;;;;;20.85;10.05;;;;;;;;;;10388312;22;20266;-93
2022/11/12 00:46:55;;;;;;;17.10;9.50;;;;;;;;;;10388124;22;20016;-92
2022/11/12 00:51:02;;;;;;;25.17;10.68;;;;;;;;;;10388353;22;20075;-93
2022/11/12 00:55:06;;;;;;;23.95;12.05;;;;;;;;;;10388454;22;20015;-93
2022/11/12 00:59:08;;;;;;;21.58;10.80;;;;;;;;;;10388810;22;20102;-93
2022/11/12 01:03:13;;;;;;;22.00;10.90;;;;;;;;;;10391406;22;20046;-92
2022/11/12 01:07:15;;;;;;;22.95;10.55;;;;;;;;;;10391117;22;20027;-93
2022/11/12 01:11:20;;;;;;;19.00;9.73;;;;;;;;;;10390443;22;20031;-92
2022/11/12 01:15:23;;;;;;;18.98;9.80;;;;;;;;;;10390653;22;20046;-92
2022/11/12 01:19:27;;;;;;;21.65;10.40;;;;;;;;;;10390975;22;20462;-92
2022/11/12 01:23:32;;;;;;;20.35;9.85;;;;;;;;;;10390743;22;20023;-93
2022/11/12 01:27:34;;;;;;;25.70;10.60;;;;;;;;;;10407786;22;20031;-93
2022/11/12 01:31:38;;;;;;;24.63;10.82;;;;;;;;;;10391090;22;20019;-92
2022/11/12 01:35:43;;;;;;;20.65;10.07;;;;;;;;;;10390731;22;20462;-93
2022/11/12 01:39:45;;;;;;;20.27;9.93;;;;;;;;;;10390648;22;20026;-92
2022/11/12 01:43:48;;;;;;;22.23;10.88;;;;;;;;;;10390537;22;20546;-92
2022/11/12 01:47:52;;;;;;;21.98;10.35;;;;;;;;;;10390619;22;20016;-92
2022/11/12 01:51:59;;;;;;;22.90;10.68;;;;;;;;;;10390361;22;20022;-93
2022/11/12 01:56:02;;;;;;;22.08;10.63;;;;;;;;;;10390449;22;20026;-92
2022/11/12 02:00:09;;;;;;;23.45;10.57;;;;;;;;;;10389852;22;20030;-93
2022/11/12 02:04:11;;;;;;;22.88;11.68;;;;;;;;;;10391578;22;20506;-91
2022/11/12 02:08:16;;;;;;;21.08;10.60;;;;;;;;;;10390383;22;20329;-93
2022/11/12 02:16:38;;;;;;;19.50;10.77;;;;;;;;;;10389158;22;20020;-93
2022/11/12 02:20:40;;;;;;;19.77;9.82;;;;;;;;;;10389911;22;20022;-94
2022/11/12 02:24:45;;;;;;;19.92;10.25;;;;;;;;;;10389849;22;20027;-93
2022/11/12 02:28:47;;;;;;;23.33;10.77;;;;;;;;;;10389950;22;20027;-92
2022/11/12 02:32:50;;;;;;;20.92;11.02;;;;;;;;;;10389681;22;20016;-93
2022/11/12 02:36:52;;;;;;;25.95;10.10;;;;;;;;;;10388492;22;20016;-93
2022/11/12 02:40:57;;;;;;;21.17;11.00;;;;;;;;;;10389251;22;20019;-94
2022/11/12 02:45:00;;;;;;;23.38;10.82;;;;;;;;;;10391263;22;20328;-93
2022/11/12 02:49:03;;;;;;;23.45;11.95;;;;;;;;;;10389592;22;20026;-92
2022/11/12 02:53:05;;;;;;;22.67;12.52;;;;;;;;;;10390152;22;20016;-91
2022/11/12 02:57:09;;;;;;;25.23;13.65;;;;;;;;;;10388797;22;20330;-92
2022/11/12 03:01:12;;;;;;;30.15;14.00;;;;;;;;;;10406502;22;20098;-93
2022/11/12 03:05:15;;;;;;;23.23;11.82;;;;;;;;;;10389257;22;20020;-93
2022/11/12 03:09:17;;;;;;;24.25;12.90;;;;;;;;;;10388299;22;20020;-92
2022/11/12 03:13:22;;;;;;;27.65;12.60;;;;;;;;;;10388964;22;20042;-95
2022/11/12 03:17:24;;;;;;;26.98;12.50;;;;;;;;;;10389357;22;20023;-93
2022/11/12 03:21:27;;;;;;;26.63;12.00;;;;;;;;;;10389492;22;20103;-94
2022/11/12 03:25:30;;;;;;;33.83;14.05;;;;;;;;;;10388580;22;20027;-94
2022/11/12 03:29:34;;;;;;;31.92;12.75;;;;;;;;;;10389450;22;20098;-93
2022/11/12 03:33:36;;;;;;;29.48;12.68;;;;;;;;;;10389158;22;20455;-91
2022/11/12 03:37:39;;;;;;;27.15;12.45;;;;;;;;;;10390141;22;20016;-94
2022/11/12 03:41:41;;;;;;;25.77;11.65;;;;;;;;;;10390730;22;20095;-93
2022/11/12 03:45:49;;;;;;;28.45;12.55;;;;;;;;;;10390182;22;20034;-91
2022/11/12 03:49:51;;;;;;;33.85;13.90;;;;;;;;;;10395489;22;20574;-94
2022/11/12 03:53:54;;;;;;;32.17;13.93;;;;;;;;;;10435649;22;20065;-92
2022/11/12 03:57:58;;;;;;;33.55;14.07;;;;;;;;;;10436606;22;20063;-92
2022/11/12 04:02:02;;;;;;;35.30;16.35;;;;;;;;;;10437856;22;20007;-91
2022/11/12 04:10:25;;;;;;;41.38;16.45;;;;;;;;;;10407501;22;20046;-94
2022/11/12 04:14:27;;;;;;;40.72;14.98;;;;;;;;;;10389955;22;20026;-94
2022/11/12 04:22:51;;;;;;;33.92;14.98;;;;;;;;;;10407030;22;20019;-94
2022/11/12 04:26:53;;;;;;;36.83;16.08;;;;;;;;;;10390542;22;20394;-94
2022/11/12 04:30:55;;;;;;;41.65;17.67;;;;;;;;;;10390268;22;20012;-93
2022/11/12 04:35:00;;;;;;;44.13;16.27;;;;;;;;;;10392541;22;20020;-92
2022/11/12 04:39:02;;;;;;;39.15;15.82;;;;;;;;;;10393974;22;20059;-95
2022/11/12 04:47:27;;;;;;;46.20;19.63;;;;;;;;;;10410933;22;20019;-94
2022/11/12 04:55:52;;;;;;;74.17;28.73;;;;;;;;;;10392375;22;20020;-94
2022/11/12 04:59:55;;;;;;;56.85;25.77;;;;;;;;;;10392389;22;20077;-94
2022/11/12 05:03:57;;;;;;;63.28;28.30;;;;;;;;;;10392746;22;20015;-91
2022/11/12 05:08:02;;;;;;;55.38;25.67;;;;;;;;;;10393633;22;20073;-94
2022/11/12 05:12:05;;;;;;;64.97;32.03;;;;;;;;;;10393507;22;20081;-94
2022/11/12 05:16:08;;;;;;;85.97;41.17;;;;;;;;;;10393058;22;20016;-95
2022/11/12 05:20:12;;;;;;;57.33;27.60;;;;;;;;;;10392918;22;20098;-94
2022/11/12 05:24:16;;;;;;;71.75;29.17;;;;;;;;;;10392752;22;20026;-95
2022/11/12 05:28:18;;;;;;;58.90;25.23;;;;;;;;;;10392907;22;20344;-94
2022/11/12 05:32:21;;;;;;;61.38;28.35;;;;;;;;;;10392894;22;20035;-94
2022/11/12 05:36:24;;;;;;;64.43;29.30;;;;;;;;;;10392814;22;20023;-95
2022/11/12 05:40:29;;;;;;;50.17;23.60;;;;;;;;;;10391899;22;20024;-92
2022/11/12 05:44:32;;;;;;;54.42;21.77;;;;;;;;;;10408054;22;20022;-95
2022/11/12 05:48:35;;;;;;;41.17;21.88;;;;;;;;;;10392007;22;20027;-94
2022/11/12 05:52:37;;;;;;;40.40;19.20;;;;;;;;;;10392303;22;20440;-94
2022/11/12 05:56:42;;;;;;;35.63;16.45;;;;;;;;;;10392347;22;20038;-94
2022/11/12 06:00:44;;;;;;;39.42;17.17;;;;;;;;;;10392051;22;20399;-94
2022/11/12 06:04:47;;;;;;;39.10;17.55;;;;;;;;;;10391837;22;20041;-92
2022/11/12 06:08:50;;;;;;;35.40;16.83;;;;;;;;;;10391699;22;20015;-94
2022/11/12 06:12:54;;;;;;;30.25;15.32;;;;;;;;;;10391761;22;20448;-94
2022/11/12 06:16:56;;;;;;;33.92;14.73;;;;;;;;;;10392323;22;20032;-94
2022/11/12 06:21:21;;;;;;;27.85;14.80;;;;;;;;;;10391244;22;20035;-94
2022/11/12 06:25:36;;;;;;;33.58;16.20;;;;;;;;;;10411656;22;20019;-93
2022/11/12 06:29:40;;;;;;;36.53;17.50;;;;;;;;;;10395549;22;20026;-93
2022/11/12 06:33:43;;;;;;;36.67;16.15;;;;;;;;;;10395526;22;20020;-94
2022/11/12 06:37:47;;;;;;;31.98;15.77;;;;;;;;;;10393784;22;20066;-94
2022/11/12 06:41:50;;;;;;;32.20;15.43;;;;;;;;;;10393764;22;20020;-92
2022/11/12 06:45:55;;;;;;;26.85;15.07;;;;;;;;;;10395439;22;20072;-94
2022/11/12 06:49:57;;;;;;;32.15;15.85;;;;;;;;;;10394896;22;20066;-93
2022/11/12 06:54:01;;;;;;;25.25;13.45;;;;;;;;;;10393968;22;20070;-92
2022/11/12 06:58:04;;;;;;;27.95;15.45;;;;;;;;;;10394922;22;20099;-93
2022/11/12 07:02:11;;;;;;;29.10;13.13;;;;;;;;;;10395020;22;20026;-92
2022/11/12 07:06:17;;;;;;;30.08;14.80;;;;;;;;;;10408821;22;20020;-93
2022/11/12 07:10:23;;;;;;;32.03;14.77;;;;;;;;;;10366835;22;20098;-93
2022/11/12 07:14:25;;;;;;;26.52;13.10;;;;;;;;;;10389883;22;20047;-93
2022/11/12 07:18:30;;;;;;;24.95;12.88;;;;;;;;;;10389639;22;20019;-91
2022/11/12 07:22:34;;;;;;;31.75;13.73;;;;;;;;;;10389446;22;20019;-94
2022/11/12 07:26:37;;;;;;;27.33;13.93;;;;;;;;;;10389044;22;20351;-93
2022/11/12 07:30:39;;;;;;;24.33;14.80;;;;;;;;;;10388524;22;20028;-92
2022/11/12 07:34:44;;;;;;;31.90;15.88;;;;;;;;;;10388669;22;20023;-94
2022/11/12 07:38:46;;;;;;;24.17;14.18;;;;;;;;;;10387788;22;20103;-92
2022/11/12 07:42:49;;;;;;;26.20;13.45;;;;;;;;;;10388542;22;20028;-94
2022/11/12 07:46:52;;;;;;;25.73;14.15;;;;;;;;;;10388048;22;20039;-93
2022/11/12 07:51:02;;;;;;;26.55;14.13;;;;;;;;;;10388648;22;20476;-94
2022/11/12 07:55:05;;;;;;;24.25;12.63;;;;;;;;;;10362272;22;20026;-93
2022/11/12 07:59:08;;;;;;;26.65;13.60;;;;;;;;;;10387572;22;20019;-94
2022/11/12 08:03:11;;;;;;;24.63;14.95;;;;;;;;;;10388158;22;20039;-93
2022/11/12 08:07:16;;;;;;;28.85;14.50;;;;;;;;;;10388708;22;20024;-94
2022/11/12 08:11:19;;;;;;;21.58;12.98;;;;;;;;;;10392379;22;20016;-93
2022/11/12 08:15:22;;;;;;;25.08;13.57;;;;;;;;;;10391057;22;20023;-94
2022/11/12 08:19:25;;;;;;;24.67;13.15;;;;;;;;;;10391092;22;20099;-93
2022/11/12 08:23:29;;;;;;;25.58;12.15;;;;;;;;;;10391154;22;20134;-92
2022/11/12 08:27:32;;;;;;;23.98;12.57;;;;;;;;;;10391038;22;20016;-92
2022/11/12 08:31:34;;;;;;;25.10;10.82;;;;;;;;;;10391003;22;20119;-94
2022/11/12 08:35:38;;;;;;;25.80;13.90;;;;;;;;;;10391302;22;20042;-92
2022/11/12 08:39:43;;;;;;;25.85;13.20;;;;;;;;;;10390364;22;20095;-91
2022/11/12 08:43:45;;;;;;;25.10;12.48;;;;;;;;;;10398236;22;20011;-92
2022/11/12 08:47:48;;;;;;;34.25;15.45;;;;;;;;;;10437195;22;20038;-92
2022/11/12 08:51:51;;;;;;;28.98;14.45;;;;;;;;;;10438919;22;20004;-90
2022/11/12 08:55:55;;;;;;;27.88;12.63;;;;;;;;;;10440368;22;20020;-92
2022/11/12 08:59:58;;;;;;;25.15;13.63;;;;;;;;;;10407563;22;20473;-92
2022/11/12 09:04:01;;;;;;;26.42;12.48;;;;;;;;;;10390799;22;20019;-92
2022/11/12 09:08:05;;;;;;;27.58;13.68;;;;;;;;;;10389743;22;20016;-92
2022/11/12 09:12:17;;;;;;;25.40;12.13;;;;;;;;;;10390338;22;20026;-92
2022/11/12 09:16:20;;;;;;;35.72;14.80;;;;;;;;;;10407365;22;20046;-92
2022/11/12 09:20:23;;;;;;;32.65;14.52;;;;;;;;;;10389683;22;20090;-91
2022/11/12 09:24:25;;;;;;;28.15;13.77;;;;;;;;;;10390303;22;20055;-92
2022/11/12 09:28:30;;;;;;;27.58;12.35;;;;;;;;;;10389944;22;20027;-92
2022/11/12 09:32:32;;;;;;;28.40;13.65;;;;;;;;;;10391276;22;20027;-92
2022/11/12 09:36:36;;;;;;;19.48;10.00;;;;;;;;;;10390158;22;20099;-92
2022/11/12 09:40:47;;;;;;;13.27;6.22;;;;;;;;;;10389781;22;20094;-91
2022/11/12 09:44:57;;;;;;;21.17;10.55;;;;;;;;;;10389514;22;20065;-91
2022/11/12 09:49:11;;;;;;;15.18;8.30;;;;;;;;;;10390843;22;20026;-92
2022/11/12 09:53:18;;;;;;;17.67;9.07;;;;;;;;;;10402855;22;20022;-92
2022/11/12 09:57:21;;;;;;;20.63;8.75;;;;;;;;;;10398060;22;20030;-92
2022/11/12 10:01:39;;;;;;;19.45;9.50;;;;;;;;;;10385051;22;20409;-91
2022/11/12 10:05:48;;;;;;;18.70;9.48;;;;;;;;;;10401823;22;20019;-91
2022/11/12 10:10:01;;;;;;;17.23;8.38;;;;;;;;;;10402640;22;20444;-91
2022/11/12 10:14:16;;;;;;;21.23;11.35;;;;;;;;;;10383939;22;20027;-93
2022/11/12 10:18:31;;;;;;;21.67;11.13;;;;;;;;;;10401100;22;20024;-93
2022/11/12 10:22:46;;;;;;;23.17;10.60;;;;;;;;;;10400966;22;20073;-93
2022/11/12 10:26:50;;;;;;;18.02;8.85;;;;;;;;;;10384501;22;20019;-91
2022/11/12 10:31:00;;;;;;;18.30;9.70;;;;;;;;;;10384900;22;20529;-91
2022/11/12 10:35:07;;;;;;;21.38;9.70;;;;;;;;;;10384904;22;20098;-92
2022/11/12 10:39:09;;;;;;;19.65;9.95;;;;;;;;;;10401382;22;20076;-93
2022/11/12 10:43:22;;;;;;;24.00;12.02;;;;;;;;;;10384464;22;20094;-91
2022/11/12 10:47:28;;;;;;;21.48;10.50;;;;;;;;;;10401909;22;20024;-93
2022/11/12 10:51:34;;;;;;;21.85;11.63;;;;;;;;;;10401454;22;20526;-93
2022/11/12 10:55:39;;;;;;;24.55;11.52;;;;;;;;;;10401308;22;20439;-92
2022/11/12 10:59:41;;;;;;;20.13;10.63;;;;;;;;;;10384141;22;20023;-91
2022/11/12 11:03:51;;;;;;;20.90;11.55;;;;;;;;;;10383686;22;20024;-92
2022/11/12 11:07:56;;;;;;;21.55;10.80;;;;;;;;;;10400494;22;20038;-91
2022/11/12 11:11:58;;;;;;;24.63;12.45;;;;;;;;;;10383932;22;20019;-91
2022/11/12 11:16:03;;;;;;;24.83;11.40;;;;;;;;;;10382329;22;20071;-91
2022/11/12 11:20:16;;;;;;;23.10;12.18;;;;;;;;;;10378973;22;20047;-91
2022/11/12 11:24:32;;;;;;;23.98;11.02;;;;;;;;;;10383293;22;20039;-93
2022/11/12 11:28:41;;;;;;;23.25;11.75;;;;;;;;;;10383769;22;20020;-93
2022/11/12 11:33:04;;;;;;;24.92;13.43;;;;;;;;;;10401002;22;20019;-92
2022/11/12 11:37:24;;;;;;;28.27;11.90;;;;;;;;;;10399781;22;20043;-91
2022/11/12 11:41:54;;;;;;;30.15;13.98;;;;;;;;;;10400675;22;20630;-91
2022/11/12 11:46:16;;;;;;;23.67;12.38;;;;;;;;;;10382661;22;20032;-94
2022/11/12 11:50:31;;;;;;;27.58;12.55;;;;;;;;;;10382708;22;20436;-92
2022/11/12 11:54:58;;;;;;;21.73;11.55;;;;;;;;;;10397757;22;20425;-93
2022/11/12 11:59:43;;;;;;;24.77;14.23;;;;;;;;;;10383160;22;20027;-92
2022/11/12 12:04:00;;;;;;;30.75;15.05;;;;;;;;;;10178920;23;20026;-92
2022/11/12 12:08:08;;;;;;;23.65;11.35;;;;;;;;;;10178859;23;20025;-93
2022/11/12 12:12:22;;;;;;;26.98;12.63;;;;;;;;;;10195560;23;20566;-91
2022/11/12 12:16:45;;;;;;;27.08;13.38;;;;;;;;;;10195244;23;20096;-91
2022/11/12 12:20:56;;;;;;;32.38;16.45;;;;;;;;;;10180522;23;20354;-91
2022/11/12 12:25:11;;;;;;;33.80;17.10;;;;;;;;;;10192737;23;20028;-91
2022/11/12 12:29:19;;;;;;;25.77;12.85;;;;;;;;;;10178168;23;20033;-91
2022/11/12 12:33:32;;;;;;;27.38;13.98;;;;;;;;;;10270330;22;20032;-91
2022/11/12 12:37:41;;;;;;;27.23;14.27;;;;;;;;;;10386818;22;20020;-92
2022/11/12 12:41:50;;;;;;;29.98;15.90;;;;;;;;;;10397579;22;20023;-92
2022/11/12 12:45:52;;;;;;;32.00;15.40;;;;;;;;;;10396957;22;20073;-92
2022/11/12 12:49:58;;;;;;;33.45;14.10;;;;;;;;;;10379816;22;20074;-91
2022/11/12 12:54:05;;;;;;;33.75;15.60;;;;;;;;;;10411539;22;19996;-93
2022/11/12 12:58:26;;;;;;;39.13;18.77;;;;;;;;;;10394588;22;20119;-92
2022/11/12 13:02:38;;;;;;;30.63;16.63;;;;;;;;;;10384320;22;20362;-93
2022/11/12 13:06:53;;;;;;;35.67;17.55;;;;;;;;;;10382607;22;20031;-93
2022/11/12 13:10:58;;;;;;;38.13;18.58;;;;;;;;;;10382917;22;20073;-91
2022/11/12 13:15:39;;;;;;;47.25;23.20;;;;;;;;;;10398990;22;20020;-92
2022/11/12 13:19:46;;;;;;;37.38;17.50;;;;;;;;;;10399152;22;20513;-91
2022/11/12 13:24:06;;;;;;;37.88;17.25;;;;;;;;;;10399964;22;20024;-93
2022/11/12 13:28:13;;;;;;;38.75;18.55;;;;;;;;;;10399836;22;20020;-92
2022/11/12 13:32:40;;;;;;;35.88;17.95;;;;;;;;;;10383388;22;20503;-92
2022/11/12 13:36:55;;;;;;;35.00;18.48;;;;;;;;;;10383873;22;20085;-92
2022/11/12 13:41:08;;;;;;;41.15;19.17;;;;;;;;;;10401246;22;20019;-91
2022/11/12 13:45:12;;;;;;;41.90;19.90;;;;;;;;;;10390834;22;20057;-91
2022/11/12 13:49:16;;;;;;;40.25;20.60;;;;;;;;;;10394957;22;20024;-92
2022/11/12 13:53:23;;;;;;;38.80;20.08;;;;;;;;;;10424927;22;20020;-93
2022/11/12 13:57:29;;;;;;;38.03;18.73;;;;;;;;;;10444318;22;20097;-91
2022/11/12 14:01:33;;;;;;;44.40;22.40;;;;;;;;;;10452696;22;20019;-92
2022/11/12 14:05:38;;;;;;;42.15;18.95;;;;;;;;;;10396096;22;20019;-91
2022/11/12 14:10:01;;;;;;;38.00;18.70;;;;;;;;;;10397031;22;20027;-94
2022/11/12 14:14:16;;;;;;;40.33;18.80;;;;;;;;;;10387340;22;20072;-92
2022/11/12 14:18:29;;;;;;;32.97;18.08;;;;;;;;;;10404965;22;20037;-94
2022/11/12 14:22:41;;;;;;;37.40;18.60;;;;;;;;;;10405016;22;20094;-93
2022/11/12 14:26:43;;;;;;;44.37;23.93;;;;;;;;;;10388278;22;20386;-93
2022/11/12 14:30:48;;;;;;;48.80;26.17;;;;;;;;;;10388338;22;20401;-92
2022/11/12 14:34:50;;;;;;;53.00;25.10;;;;;;;;;;10386884;22;20016;-92
2022/11/12 14:38:56;;;;;;;40.28;21.20;;;;;;;;;;10384479;22;20023;-92
2022/11/12 14:42:58;;;;;;;38.47;19.70;;;;;;;;;;10400280;22;20025;-92
2022/11/12 14:47:03;;;;;;;47.35;23.80;;;;;;;;;;10383893;22;20026;-92
2022/11/12 14:51:11;;;;;;;52.53;28.02;;;;;;;;;;10386650;22;20038;-93
2022/11/12 14:55:17;;;;;;;39.67;21.08;;;;;;;;;;10403492;22;20023;-94
2022/11/12 14:59:27;;;;;;;46.63;22.02;;;;;;;;;;10293300;22;20459;-95
2022/11/12 15:03:37;;;;;;;41.97;21.10;;;;;;;;;;10385081;22;20047;-93
2022/11/12 15:07:53;;;;;;;57.67;24.33;;;;;;;;;;10404326;22;20329;-94
2022/11/12 15:11:57;;;;;;;49.97;23.75;;;;;;;;;;10402646;22;20149;-95
2022/11/12 15:16:06;;;;;;;58.33;25.92;;;;;;;;;;10385045;22;20494;-93
2022/11/12 15:20:19;;;;;;;50.50;25.08;;;;;;;;;;10401875;22;20031;-95
2022/11/12 15:24:44;;;;;;;53.97;26.30;;;;;;;;;;10402483;22;20030;-93
2022/11/12 15:29:03;;;;;;;65.57;30.63;;;;;;;;;;10402980;22;20046;-93
2022/11/12 15:33:22;;;;;;;79.55;35.38;;;;;;;;;;10385379;22;20099;-92
2022/11/12 15:37:30;;;;;;;89.50;36.13;;;;;;;;;;10402594;22;20022;-94
2022/11/12 15:41:35;;;;;;;56.97;27.17;;;;;;;;;;10386431;22;20028;-95
2022/11/12 15:45:37;;;;;;;64.22;30.65;;;;;;;;;;10384941;22;20019;-92
2022/11/12 15:49:49;;;;;;;60.88;28.17;;;;;;;;;;10386606;22;20069;-94
2022/11/12 15:53:53;;;;;;;52.72;25.92;;;;;;;;;;10402968;22;20015;-92
2022/11/12 15:57:56;;;;;;;63.28;28.67;;;;;;;;;;10384910;22;20024;-95
2022/11/12 16:01:59;;;;;;;52.42;25.05;;;;;;;;;;10384510;22;20091;-91
2022/11/12 16:06:02;;;;;;;53.13;24.80;;;;;;;;;;10383331;22;20022;-91
2022/11/12 16:10:07;;;;;;;58.20;26.70;;;;;;;;;;10383035;22;20499;-94
2022/11/12 16:14:13;;;;;;;64.22;30.40;;;;;;;;;;10383366;22;20042;-94
2022/11/12 16:18:16;;;;;;;66.50;30.35;;;;;;;;;;10399226;22;20039;-93
2022/11/12 16:22:18;;;;;;;55.67;25.63;;;;;;;;;;10382085;22;20050;-92
2022/11/12 16:26:26;;;;;;;56.47;26.92;;;;;;;;;;10383751;22;20022;-93
2022/11/12 16:30:31;;;;;;;61.17;26.95;;;;;;;;;;10404968;22;20073;-95
2022/11/12 16:34:34;;;;;;;54.45;26.58;;;;;;;;;;10406649;22;20031;-92
2022/11/12 16:38:36;;;;;;;71.68;33.03;;;;;;;;;;10387812;22;20024;-93
2022/11/12 16:42:44;;;;;;;102.63;47.03;;;;;;;;;;10387625;22;20020;-93
2022/11/12 16:46:47;;;;;;;81.65;37.17;;;;;;;;;;10404638;22;20441;-93
2022/11/12 16:50:50;;;;;;;66.35;30.63;;;;;;;;;;10387706;22;20157;-92
2022/11/12 16:54:52;;;;;;;76.72;34.13;;;;;;;;;;10386820;22;20011;-93
2022/11/12 16:58:56;;;;;;;76.18;31.13;;;;;;;;;;10386557;22;20043;-91
2022/11/12 17:02:59;;;;;;;75.95;29.88;;;;;;;;;;10386767;22;20023;-94
2022/11/12 17:07:05;;;;;;;68.70;32.83;;;;;;;;;;10397747;22;20039;-96
2022/11/12 17:11:09;;;;;;;89.10;34.50;;;;;;;;;;10408223;22;20029;-92
2022/11/12 17:15:13;;;;;;;79.78;33.70;;;;;;;;;;10386998;22;20097;-93
2022/11/12 17:19:16;;;;;;;74.25;31.10;;;;;;;;;;10384227;22;20020;-92
2022/11/12 17:23:19;;;;;;;75.75;30.25;;;;;;;;;;10385264;22;20428;-92
2022/11/12 17:27:22;;;;;;;66.30;27.63;;;;;;;;;;10385772;22;20035;-93
2022/11/12 17:31:27;;;;;;;75.30;31.15;;;;;;;;;;10385609;22;20415;-92
2022/11/12 17:35:30;;;;;;;58.83;23.83;;;;;;;;;;10385700;22;20023;-91
2022/11/12 17:39:33;;;;;;;67.50;28.67;;;;;;;;;;10385879;22;20321;-93
2022/11/12 17:43:36;;;;;;;71.07;29.77;;;;;;;;;;10385389;22;20500;-92
2022/11/12 17:47:40;;;;;;;72.18;28.27;;;;;;;;;;10384257;22;20457;-91
2022/11/12 17:51:43;;;;;;;69.05;25.45;;;;;;;;;;10384531;22;20020;-93
2022/11/12 17:55:46;;;;;;;70.30;28.30;;;;;;;;;;10358170;22;20025;-93
2022/11/12 17:59:51;;;;;;;76.50;30.48;;;;;;;;;;10384226;22;20470;-93
2022/11/12 18:03:57;;;;;;;76.55;30.60;;;;;;;;;;10385470;22;20019;-93
2022/11/12 18:08:00;;;;;;;77.70;29.27;;;;;;;;;;10385490;22;20027;-93
2022/11/12 18:12:05;;;;;;;77.00;29.77;;;;;;;;;;10384646;22;20440;-93
2022/11/12 18:16:14;;;;;;;77.28;29.50;;;;;;;;;;10385759;22;20076;-93
2022/11/12 18:20:19;;;;;;;84.00;31.35;;;;;;;;;;10383565;22;20027;-93
2022/11/12 18:24:24;;;;;;;77.18;28.08;;;;;;;;;;10384970;22;20058;-93
2022/11/12 18:28:28;;;;;;;70.75;27.90;;;;;;;;;;10385210;22;20123;-91
2022/11/12 18:32:31;;;;;;;70.68;27.92;;;;;;;;;;10381474;22;20020;-92
2022/11/12 18:36:36;;;;;;;79.03;28.63;;;;;;;;;;10380369;22;20019;-91
2022/11/12 18:40:38;;;;;;;74.15;30.33;;;;;;;;;;10381081;22;20023;-93
2022/11/12 18:44:41;;;;;;;73.10;28.27;;;;;;;;;;10382886;22;20020;-92
2022/11/12 18:48:44;;;;;;;66.63;27.98;;;;;;;;;;10381905;22;20020;-91
2022/11/12 18:52:54;;;;;;;78.22;29.52;;;;;;;;;;10383321;22;20453;-92
2022/11/12 18:57:00;;;;;;;79.28;28.00;;;;;;;;;;10399814;22;20020;-92
2022/11/12 19:01:03;;;;;;;78.32;29.77;;;;;;;;;;10356256;22;20040;-93
2022/11/12 19:05:08;;;;;;;76.47;28.98;;;;;;;;;;10383870;22;20019;-91
2022/11/12 19:09:15;;;;;;;75.70;28.10;;;;;;;;;;10401189;22;20019;-92
2022/11/12 19:13:19;;;;;;;67.18;27.38;;;;;;;;;;10407573;22;20023;-92
2022/11/12 19:17:22;;;;;;;66.70;24.98;;;;;;;;;;10430738;22;20008;-92
2022/11/12 19:21:26;;;;;;;71.88;29.05;;;;;;;;;;10406803;22;20011;-91
2022/11/12 19:25:34;;;;;;;75.07;29.67;;;;;;;;;;10452213;22;20015;-91
2022/11/12 19:29:38;;;;;;;75.72;29.08;;;;;;;;;;10430832;22;20392;-91
2022/11/12 19:33:41;;;;;;;73.22;28.17;;;;;;;;;;10388350;22;20030;-90
2022/11/12 19:37:43;;;;;;;41.03;17.30;;;;;;;;;;10386872;22;20456;-91
2022/11/12 19:41:48;;;;;;;66.28;25.13;;;;;;;;;;10387350;22;20016;-91
2022/11/12 19:45:51;;;;;;;69.20;27.58;;;;;;;;;;10387329;22;20402;-92
2022/11/12 19:49:54;;;;;;;57.65;23.48;;;;;;;;;;10388219;22;20019;-91
2022/11/12 19:53:57;;;;;;;73.05;26.48;;;;;;;;;;10386879;22;20023;-90
2022/11/12 19:58:02;;;;;;;67.35;26.58;;;;;;;;;;10387816;22;20020;-92
2022/11/12 20:02:04;;;;;;;67.32;23.85;;;;;;;;;;10387813;22;20015;-92
2022/11/12 20:06:10;;;;;;;72.15;28.48;;;;;;;;;;10390233;22;20389;-92
2022/11/12 20:10:13;;;;;;;71.07;29.40;;;;;;;;;;10407623;22;20397;-93
2022/11/12 20:14:19;;;;;;;52.70;20.55;;;;;;;;;;10390495;22;20020;-92
2022/11/12 20:18:21;;;;;;;179.15;49.53;;;;;;;;;;10391481;22;20039;-92
2022/11/12 20:22:24;;;;;;;150.65;39.80;;;;;;;;;;10391655;22;20089;-92
2022/11/12 20:26:27;;;;;;;130.45;39.15;;;;;;;;;;10391431;22;20020;-91
2022/11/12 20:30:32;;;;;;;41.03;17.20;;;;;;;;;;10391215;22;20077;-92
2022/11/12 20:34:34;;;;;;;47.85;17.60;;;;;;;;;;10391170;22;20590;-92
2022/11/12 20:38:42;;;;;;;40.85;17.02;;;;;;;;;;10390035;22;20040;-92
2022/11/12 20:42:45;;;;;;;52.75;22.27;;;;;;;;;;10390534;22;20444;-93
2022/11/12 20:46:50;;;;;;;63.75;24.60;;;;;;;;;;10390811;22;20024;-92
2022/11/12 20:51:03;;;;;;;56.00;23.92;;;;;;;;;;10390943;22;20022;-92
2022/11/12 20:55:06;;;;;;;54.60;22.83;;;;;;;;;;10408192;22;20026;-92
2022/11/12 20:59:09;;;;;;;50.47;20.42;;;;;;;;;;10391038;22;20474;-92
2022/11/12 21:03:15;;;;;;;46.13;18.58;;;;;;;;;;10390809;22;20019;-92
2022/11/12 21:07:17;;;;;;;43.70;17.77;;;;;;;;;;10390460;22;20321;-92
2022/11/12 21:11:25;;;;;;;46.58;19.20;;;;;;;;;;10364226;22;20073;-95
2022/11/12 21:15:28;;;;;;;45.83;18.25;;;;;;;;;;10389971;22;20372;-91
2022/11/12 21:19:32;;;;;;;45.03;18.23;;;;;;;;;;10390638;22;20024;-91
2022/11/12 21:23:36;;;;;;;41.80;17.50;;;;;;;;;;10390583;22;20089;-92
2022/11/12 21:27:39;;;;;;;43.55;17.38;;;;;;;;;;10390690;22;20022;-93
2022/11/12 21:31:41;;;;;;;39.55;17.33;;;;;;;;;;10390414;22;20023;-92
2022/11/12 21:35:53;;;;;;;48.45;17.65;;;;;;;;;;10390928;22;20020;-92
2022/11/12 21:39:55;;;;;;;41.80;16.60;;;;;;;;;;10407298;22;20019;-93
2022/11/12 21:43:58;;;;;;;39.80;16.73;;;;;;;;;;10390206;22;20114;-93
2022/11/12 21:48:01;;;;;;;44.53;17.05;;;;;;;;;;10389935;22;20448;-92
2022/11/12 21:52:08;;;;;;;38.97;16.52;;;;;;;;;;10390834;22;20022;-92
2022/11/12 21:56:12;;;;;;;35.35;15.45;;;;;;;;;;10406960;22;20019;-92
2022/11/12 22:00:16;;;;;;;41.47;15.18;;;;;;;;;;10389865;22;20024;-92
2022/11/12 22:04:18;;;;;;;39.17;15.50;;;;;;;;;;10390442;22;20029;-93
2022/11/12 22:08:22;;;;;;;34.78;14.75;;;;;;;;;;10390142;22;20047;-92
2022/11/12 22:12:25;;;;;;;38.58;16.35;;;;;;;;;;10389844;22;20344;-92
2022/11/12 22:16:29;;;;;;;37.15;16.08;;;;;;;;;;10389371;22;20019;-93
2022/11/12 22:20:31;;;;;;;37.20;14.65;;;;;;;;;;10390024;22;20020;-92
2022/11/12 22:24:36;;;;;;;37.80;14.18;;;;;;;;;;10389615;22;20027;-92
2022/11/12 22:28:38;;;;;;;33.42;14.85;;;;;;;;;;10389641;22;20436;-91
2022/11/12 22:32:41;;;;;;;35.83;13.07;;;;;;;;;;10389856;22;20062;-92
2022/11/12 22:36:43;;;;;;;31.10;13.35;;;;;;;;;;10389489;22;20019;-92
2022/11/12 22:40:48;;;;;;;39.25;14.25;;;;;;;;;;10389763;22;20084;-94
2022/11/12 22:44:50;;;;;;;34.65;14.48;;;;;;;;;;10389393;22;20451;-91
2022/11/12 22:48:53;;;;;;;37.85;14.77;;;;;;;;;;10389364;22;20073;-92
2022/11/12 22:52:56;;;;;;;34.25;15.82;;;;;;;;;;10389343;22;20471;-91
2022/11/12 22:57:00;;;;;;;37.13;14.68;;;;;;;;;;10388947;22;20016;-92
2022/11/12 23:01:03;;;;;;;36.67;15.57;;;;;;;;;;10406491;22;20098;-92
2022/11/12 23:05:07;;;;;;;39.83;14.32;;;;;;;;;;10388933;22;20042;-92
2022/11/12 23:09:15;;;;;;;36.00;12.75;;;;;;;;;;10388762;22;20432;-93
2022/11/12 23:13:19;;;;;;;33.28;13.30;;;;;;;;;;10405999;22;20463;-93
2022/11/12 23:17:21;;;;;;;34.92;13.95;;;;;;;;;;10388974;22;20367;-92
2022/11/12 23:21:26;;;;;;;32.17;12.60;;;;;;;;;;10388978;22;20088;-93
2022/11/12 23:25:28;;;;;;;35.15;13.15;;;;;;;;;;10389032;22;20117;-92
2022/11/12 23:29:32;;;;;;;36.20;13.20;;;;;;;;;;10389089;22;20343;-92
2022/11/12 23:33:35;;;;;;;33.90;13.02;;;;;;;;;;10389576;22;20016;-93
2022/11/12 23:37:38;;;;;;;36.05;13.93;;;;;;;;;;10388874;22;20023;-93
2022/11/12 23:41:40;;;;;;;41.90;15.05;;;;;;;;;;10388726;22;20446;-93
2022/11/12 23:45:44;;;;;;;36.28;13.65;;;;;;;;;;10389272;22;20024;-92
2022/11/12 23:49:47;;;;;;;32.78;12.93;;;;;;;;;;10389198;22;20070;-93
2022/11/12 23:53:49;;;;;;;33.83;13.68;;;;;;;;;;10388462;22;20377;-93